Astoria, South Dakota
Current Conditions -  °F | °C
As of 3:53 PM on Monday 22 Dec 2014 (Local Time) from KCNB Reporting Station
Light Rain Light Rain  
Wind Chill: -1°   Ceiling: 200
Heat Index:   Visibility: 1.7mi
Dew Point:   Wind: 10mph
Humidity: 99%   Direction: 120°ESE
Pressure: 29.46"   Gusts: 16mph
Location:  44.56°N, 96.55°W
Report Text: KCNB 222153Z AUTO 12009G14KT 1 3/4SM -RA OVC002 03/03 A2946 RMK AO2 T00320031
Loading
Personal Weather Stations






























Interactive Weather Map New forecast layout! Learn more

10-Day Weather Forecast

Advertisements
Track Severe Weather on mobile